createdAt,value
2023-02-08T00:01:25.717Z,59.07
2023-02-08T00:03:54.736Z,59.06
2023-02-08T00:06:23.117Z,58.97
2023-02-08T00:08:51.388Z,58.89
2023-02-08T00:11:19.772Z,58.95
2023-02-08T00:13:49.775Z,58.99
2023-02-08T00:16:18.444Z,58.96
2023-02-08T00:18:47.071Z,59.04
2023-02-08T00:21:17.607Z,58.79
2023-02-08T00:23:46.726Z,58.71
2023-02-08T00:26:16.029Z,58.46
2023-02-08T00:28:44.571Z,58.41
2023-02-08T00:31:14.183Z,58.37
2023-02-08T00:33:42.637Z,58.32
2023-02-08T00:36:12.485Z,58.42
2023-02-08T00:38:43.149Z,58.38
2023-02-08T00:41:11.419Z,58.12
2023-02-08T00:43:39.488Z,58.30
2023-02-08T00:46:08.104Z,58.16
2023-02-08T00:48:37.426Z,58.14
2023-02-08T00:51:08.330Z,58.24
2023-02-08T00:53:38.038Z,58.26
2023-02-08T00:56:07.675Z,58.21
2023-02-08T00:58:36.761Z,58.16
2023-02-08T01:01:06.593Z,58.17
2023-02-08T01:03:37.537Z,58.35
2023-02-08T01:06:08.884Z,58.46
2023-02-08T01:08:37.571Z,58.34
2023-02-08T01:11:07.718Z,58.31
2023-02-08T01:13:36.259Z,58.15
2023-02-08T01:16:10.355Z,58.14
2023-02-08T01:18:41.104Z,58.05
2023-02-08T01:21:10.763Z,57.95
2023-02-08T01:23:39.632Z,57.86
2023-02-08T01:26:10.428Z,57.93
2023-02-08T01:28:40.808Z,57.96
2023-02-08T01:31:13.161Z,57.97
2023-02-08T01:33:43.214Z,57.91
2023-02-08T01:36:12.025Z,57.88
2023-02-08T01:38:42.402Z,58.63
2023-02-08T01:41:17.007Z,58.22
2023-02-08T01:46:51.724Z,58.23
2023-02-08T01:49:28.540Z,58.07
2023-02-08T01:52:00.733Z,58.10
2023-02-08T01:54:32.458Z,57.98
2023-02-08T01:57:00.876Z,57.85
2023-02-08T01:59:39.788Z,57.78
2023-02-08T02:02:12.588Z,57.87
2023-02-08T02:04:45.073Z,57.92
2023-02-08T02:07:14.771Z,57.81
2023-02-08T02:09:48.600Z,57.63
2023-02-08T02:12:18.859Z,57.51
2023-02-08T02:14:47.506Z,57.55
2023-02-08T02:17:19.800Z,57.56
2023-02-08T02:19:56.845Z,57.52
2023-02-08T02:22:50.395Z,57.54
2023-02-08T02:25:49.483Z,57.43
2023-02-08T02:28:46.707Z,57.62
2023-02-08T02:31:55.348Z,57.65
2023-02-08T02:34:30.891Z,57.87
2023-02-08T02:37:09.692Z,57.74
2023-02-08T02:39:44.933Z,57.73
2023-02-08T02:42:59.312Z,57.86
2023-02-08T02:46:13.949Z,57.91
2023-02-08T02:48:51.322Z,58.08
2023-02-08T02:51:27.384Z,58.13
2023-02-08T02:54:01.307Z,58.07
2023-02-08T02:56:36.622Z,57.91
2023-02-08T02:59:08.776Z,57.77
2023-02-08T03:01:37.780Z,57.64
2023-02-08T03:04:16.326Z,57.68
2023-02-08T03:06:59.026Z,57.73
2023-02-08T03:10:18.140Z,57.69
2023-02-08T03:12:57.490Z,57.76
2023-02-08T03:15:37.687Z,58.15
2023-02-08T03:18:19.562Z,58.16
2023-02-08T03:25:22.559Z,58.06
2023-02-08T03:28:00.249Z,58.06
2023-02-08T03:30:33.416Z,58.02
2023-02-08T03:33:07.003Z,58.07
2023-02-08T03:35:41.110Z,58.16
2023-02-08T03:38:12.769Z,58.19
2023-02-08T03:40:45.525Z,58.23
2023-02-08T03:43:18.764Z,58.23
2023-02-08T03:45:51.828Z,58.22
2023-02-08T03:48:24.193Z,58.25
2023-02-08T03:50:54.723Z,58.32
2023-02-08T03:53:25.443Z,58.19
2023-02-08T03:56:00.936Z,58.08
2023-02-08T03:58:35.936Z,58.09
2023-02-08T04:01:09.472Z,58.14
2023-02-08T04:03:38.937Z,58.16
2023-02-08T04:06:07.430Z,58.18
2023-02-08T04:08:35.499Z,58.15
2023-02-08T04:11:05.335Z,58.13
2023-02-08T04:13:33.449Z,58.22
2023-02-08T04:16:01.791Z,58.24
2023-02-08T04:18:30.261Z,58.14
2023-02-08T04:20:58.385Z,58.07
2023-02-08T04:23:26.521Z,57.92
2023-02-08T04:25:55.010Z,57.81
2023-02-08T04:28:24.534Z,57.92
2023-02-08T04:30:52.789Z,57.92
2023-02-08T04:33:21.532Z,57.92
2023-02-08T04:35:50.174Z,58.00
2023-02-08T04:38:18.298Z,58.03
2023-02-08T04:40:46.841Z,58.01
2023-02-08T04:43:15.018Z,57.92
2023-02-08T04:45:44.427Z,57.91
2023-02-08T04:48:13.277Z,57.79
2023-02-08T04:50:44.190Z,57.88
2023-02-08T04:53:18.848Z,57.78
2023-02-08T04:55:54.308Z,57.75
2023-02-08T04:58:23.898Z,57.92
2023-02-08T05:00:53.287Z,57.70
2023-02-08T05:03:21.558Z,57.59
2023-02-08T05:05:58.058Z,57.64
2023-02-08T05:08:26.159Z,57.59
2023-02-08T05:10:54.775Z,57.76
2023-02-08T05:13:22.778Z,57.83
2023-02-08T05:15:50.811Z,57.94
2023-02-08T05:18:20.739Z,57.86
2023-02-08T05:20:55.569Z,57.85
2023-02-08T05:23:23.951Z,57.91
2023-02-08T05:25:52.437Z,57.92
2023-02-08T05:28:21.045Z,57.92
2023-02-08T05:30:49.482Z,57.77
2023-02-08T05:33:17.745Z,57.59
2023-02-08T05:35:47.319Z,57.65
2023-02-08T05:38:15.803Z,57.77
2023-02-08T05:40:44.021Z,58.12
2023-02-08T05:43:12.156Z,58.20
2023-02-08T05:45:40.848Z,58.05
2023-02-08T05:48:09.223Z,58.09
2023-02-08T05:50:37.639Z,58.17
2023-02-08T05:53:07.583Z,58.18
2023-02-08T05:55:35.705Z,58.25
2023-02-08T05:58:03.922Z,58.24
2023-02-08T06:00:32.375Z,58.17
2023-02-08T06:03:00.918Z,58.15
2023-02-08T06:05:29.348Z,58.24
2023-02-08T06:07:57.696Z,58.29
2023-02-08T06:10:28.703Z,58.26
2023-02-08T06:12:57.700Z,58.23
2023-02-08T06:15:26.488Z,58.20
2023-02-08T06:17:54.698Z,58.37
2023-02-08T06:20:22.959Z,58.34
2023-02-08T06:22:51.560Z,58.31
2023-02-08T06:25:19.813Z,58.41
2023-02-08T06:27:49.445Z,58.48
2023-02-08T06:30:18.360Z,58.60
2023-02-08T06:32:46.429Z,58.32
2023-02-08T06:35:16.239Z,58.33
2023-02-08T06:37:45.719Z,58.50
2023-02-08T06:40:15.063Z,58.38
2023-02-08T06:42:44.122Z,58.35
2023-02-08T06:45:14.151Z,58.18
2023-02-08T06:47:42.422Z,58.14
2023-02-08T06:50:11.450Z,58.02
2023-02-08T06:52:39.947Z,58.00
2023-02-08T06:55:08.525Z,57.90
2023-02-08T06:57:36.601Z,57.92
2023-02-08T07:00:05.615Z,57.90
2023-02-08T07:02:35.246Z,58.02
2023-02-08T07:05:03.760Z,57.98
2023-02-08T07:07:32.580Z,57.89
2023-02-08T07:10:00.843Z,57.81
2023-02-08T07:12:29.022Z,57.58
2023-02-08T07:14:57.397Z,57.37
2023-02-08T07:17:25.593Z,57.30
2023-02-08T07:19:55.201Z,57.17
2023-02-08T07:22:23.667Z,57.23
2023-02-08T07:24:51.794Z,57.19
2023-02-08T07:27:19.976Z,57.29
2023-02-08T07:29:48.432Z,57.13
2023-02-08T07:32:16.541Z,57.51
2023-02-08T07:34:45.584Z,57.63
2023-02-08T07:37:15.206Z,57.54
2023-02-08T07:39:43.440Z,57.36
2023-02-08T07:42:12.279Z,57.42
2023-02-08T07:44:42.003Z,57.47
2023-02-08T07:47:10.072Z,57.32
2023-02-08T07:49:37.997Z,57.13
2023-02-08T07:52:06.647Z,57.16
2023-02-08T07:54:36.374Z,57.03
2023-02-08T07:57:04.541Z,57.20
2023-02-08T07:59:32.843Z,57.35
2023-02-08T08:02:00.972Z,57.15
2023-02-08T08:04:29.277Z,57.17
2023-02-08T08:06:57.459Z,57.39
2023-02-08T08:09:25.636Z,57.32
2023-02-08T08:11:55.203Z,57.21
2023-02-08T08:14:23.149Z,57.22
2023-02-08T08:16:51.189Z,56.96
2023-02-08T08:19:19.792Z,57.19
2023-02-08T08:21:48.798Z,57.55
2023-02-08T08:24:17.324Z,57.48
2023-02-08T08:26:45.677Z,57.30
2023-02-08T08:29:15.215Z,57.10
2023-02-08T08:31:44.198Z,57.35
2023-02-08T08:34:12.568Z,57.43
2023-02-08T08:36:40.559Z,57.57
2023-02-08T08:39:08.714Z,57.75
2023-02-08T08:41:37.336Z,57.65
2023-02-08T08:44:05.705Z,57.27
2023-02-08T08:46:35.153Z,56.98
2023-02-08T08:49:03.456Z,57.15
2023-02-08T08:51:35.209Z,57.43
2023-02-08T08:54:03.729Z,57.24
2023-02-08T08:56:32.687Z,57.02
2023-02-08T08:59:00.906Z,57.06
2023-02-08T09:01:29.625Z,57.33
2023-02-08T09:03:59.205Z,57.12
2023-02-08T09:06:27.391Z,56.95
2023-02-08T09:08:55.673Z,56.57
2023-02-08T09:11:23.765Z,56.71
2023-02-08T09:13:52.906Z,56.80
2023-02-08T09:16:21.432Z,56.45
2023-02-08T09:18:49.935Z,56.37
2023-02-08T09:21:21.764Z,56.47
2023-02-08T09:23:50.247Z,56.60
2023-02-08T09:26:20.592Z,56.57
2023-02-08T09:28:48.891Z,56.36
2023-02-08T09:31:21.635Z,56.55
2023-02-08T09:33:50.360Z,56.31
2023-02-08T09:36:21.087Z,57.05
2023-02-08T09:38:51.648Z,57.26
2023-02-08T09:41:30.884Z,56.95
2023-02-08T09:44:15.460Z,56.49
2023-02-08T09:46:51.579Z,56.58
2023-02-08T09:49:25.375Z,56.90
2023-02-08T09:51:59.785Z,56.71
2023-02-08T09:54:33.082Z,56.79
2023-02-08T09:57:03.400Z,56.88
2023-02-08T09:59:35.012Z,57.03
2023-02-08T10:02:12.347Z,56.86
2023-02-08T10:04:52.443Z,56.71
2023-02-08T10:07:21.942Z,56.02
2023-02-08T10:09:50.239Z,55.79
2023-02-08T10:12:27.417Z,55.44
2023-02-08T10:15:06.971Z,55.28
2023-02-08T10:18:10.691Z,55.08
2023-02-08T10:20:51.321Z,54.56
2023-02-08T10:23:36.792Z,54.95
2023-02-08T10:26:14.643Z,54.81
2023-02-08T10:29:09.127Z,54.67
2023-02-08T10:31:51.618Z,54.29
2023-02-08T10:34:31.461Z,55.16
2023-02-08T10:37:03.048Z,54.99
2023-02-08T10:39:35.728Z,55.76
2023-02-08T10:42:05.550Z,55.19
2023-02-08T10:44:40.884Z,55.28
2023-02-08T10:47:16.130Z,54.50
2023-02-08T10:49:52.027Z,54.27
2023-02-08T10:52:20.508Z,54.63
2023-02-08T10:54:50.118Z,54.08
2023-02-08T10:57:23.193Z,55.13
2023-02-08T10:59:54.270Z,55.07
2023-02-08T11:02:26.461Z,54.34
2023-02-08T11:05:03.584Z,55.29
2023-02-08T11:07:34.706Z,54.89
2023-02-08T11:10:24.491Z,55.24
2023-02-08T11:12:58.223Z,54.70
2023-02-08T11:15:30.763Z,55.00
2023-02-08T11:18:01.921Z,55.22
2023-02-08T11:20:34.799Z,55.64
2023-02-08T11:23:03.536Z,55.24
2023-02-08T11:25:36.794Z,55.62
2023-02-08T11:28:05.811Z,55.34
2023-02-08T11:30:34.427Z,54.56
2023-02-08T11:33:19.056Z,54.99
2023-02-08T11:35:56.456Z,54.48
2023-02-08T11:38:28.189Z,54.53
2023-02-08T11:41:00.134Z,55.13
2023-02-08T11:43:31.019Z,54.93
2023-02-08T11:46:05.438Z,55.01
2023-02-08T11:48:41.877Z,54.25
2023-02-08T11:51:13.797Z,54.93
2023-02-08T11:53:47.538Z,54.93
2023-02-08T11:56:20.834Z,54.69
2023-02-08T11:59:07.779Z,54.37
2023-02-08T12:01:38.093Z,54.05
2023-02-08T12:04:08.632Z,54.55
2023-02-08T12:06:57.343Z,54.74
2023-02-08T12:09:43.194Z,54.52
2023-02-08T12:12:25.729Z,54.36
2023-02-08T12:15:05.797Z,54.48
2023-02-08T12:17:49.128Z,54.04
2023-02-08T12:20:38.015Z,54.44
2023-02-08T12:23:29.163Z,54.61
2023-02-08T12:26:08.447Z,54.67
2023-02-08T12:28:51.724Z,54.72
2023-02-08T12:31:29.101Z,54.45
2023-02-08T12:34:07.557Z,55.17
2023-02-08T12:37:14.509Z,55.04
2023-02-08T12:40:09.708Z,53.79
2023-02-08T12:42:50.591Z,54.42
2023-02-08T12:45:53.277Z,54.83
2023-02-08T12:48:44.235Z,53.43
2023-02-08T12:51:23.107Z,53.53
2023-02-08T12:53:55.073Z,54.24
2023-02-08T12:56:28.779Z,54.64
2023-02-08T12:59:11.741Z,54.83
2023-02-08T13:01:45.425Z,54.10
2023-02-08T13:04:17.904Z,54.42
2023-02-08T13:06:49.616Z,54.21
2023-02-08T13:09:25.867Z,54.19
2023-02-08T13:11:58.520Z,53.49
2023-02-08T13:14:34.057Z,53.62
2023-02-08T13:17:10.883Z,53.76
2023-02-08T13:20:00.083Z,53.24
2023-02-08T13:22:32.857Z,53.82
2023-02-08T13:25:08.470Z,53.26
2023-02-08T13:27:37.042Z,53.66
2023-02-08T13:30:07.064Z,53.83
2023-02-08T13:32:44.150Z,54.01
2023-02-08T13:35:18.250Z,53.12
2023-02-08T13:37:53.267Z,53.12
2023-02-08T13:40:28.193Z,53.19
2023-02-08T13:43:01.048Z,53.88
2023-02-08T13:45:32.978Z,53.09
2023-02-08T13:48:04.533Z,53.76
2023-02-08T13:50:42.960Z,53.86
2023-02-08T13:53:11.695Z,53.34
2023-02-08T13:56:01.811Z,53.38
2023-02-08T13:58:55.296Z,52.74
2023-02-08T14:01:27.721Z,53.80
2023-02-08T14:04:29.840Z,54.21
2023-02-08T14:07:01.243Z,52.75
2023-02-08T14:09:44.057Z,53.01
2023-02-08T14:12:20.649Z,53.89
2023-02-08T14:15:22.094Z,53.88
2023-02-08T14:17:55.178Z,52.55
2023-02-08T14:20:30.518Z,53.32
2023-02-08T14:23:02.453Z,53.59
2023-02-08T14:25:39.852Z,53.01
2023-02-08T14:28:09.402Z,53.14
2023-02-08T14:30:41.188Z,53.35
2023-02-08T14:33:19.105Z,53.46
2023-02-08T14:35:56.327Z,52.62
2023-02-08T14:39:06.706Z,52.82
2023-02-08T14:41:54.459Z,52.03
2023-02-08T14:45:03.067Z,53.71
2023-02-08T14:48:20.287Z,52.68
2023-02-08T14:50:58.094Z,53.58
2023-02-08T14:53:36.591Z,54.41
2023-02-08T14:56:15.502Z,54.55
2023-02-08T14:58:46.764Z,54.16
2023-02-08T15:01:20.181Z,54.69
2023-02-08T15:03:51.653Z,54.83
2023-02-08T15:07:01.628Z,54.86
2023-02-08T15:09:32.204Z,54.55
2023-02-08T15:12:02.806Z,54.61
2023-02-08T15:14:34.926Z,54.05
2023-02-08T15:17:03.297Z,54.10
2023-02-08T15:19:34.150Z,54.47
2023-02-08T15:22:18.967Z,54.78
2023-02-08T15:24:51.225Z,54.85
2023-02-08T15:27:23.096Z,55.33
2023-02-08T15:29:51.743Z,55.57
2023-02-08T15:32:22.802Z,55.58
2023-02-08T15:34:55.427Z,55.59
2023-02-08T15:37:26.157Z,55.70
2023-02-08T15:39:56.799Z,55.85
2023-02-08T15:42:28.890Z,56.00
2023-02-08T15:44:57.584Z,55.99
2023-02-08T15:47:30.057Z,56.16
2023-02-08T15:49:59.489Z,56.24
2023-02-08T15:52:36.069Z,56.30
2023-02-08T15:55:07.873Z,56.57
2023-02-08T15:57:40.926Z,56.75
2023-02-08T16:00:17.207Z,56.77
2023-02-08T16:02:51.469Z,56.71
2023-02-08T16:05:22.439Z,56.37
2023-02-08T16:07:53.043Z,56.36
2023-02-08T16:10:29.947Z,56.08
2023-02-08T16:13:00.256Z,56.20
2023-02-08T16:15:43.673Z,56.10
2023-02-08T16:18:46.435Z,56.15
2023-02-08T16:21:23.405Z,56.29
2023-02-08T16:23:55.019Z,56.60
2023-02-08T16:26:28.473Z,56.92
2023-02-08T16:29:04.846Z,56.63
2023-02-08T16:31:36.813Z,57.00
2023-02-08T16:34:08.545Z,57.19
2023-02-08T16:36:42.283Z,56.93
2023-02-08T16:39:37.976Z,56.31
2023-02-08T16:42:16.338Z,56.44
2023-02-08T16:45:03.401Z,56.09
2023-02-08T16:47:37.927Z,56.36
2023-02-08T16:50:07.577Z,56.17
2023-02-08T16:52:36.262Z,56.71
2023-02-08T16:55:06.643Z,56.15
2023-02-08T16:57:42.993Z,56.00
2023-02-08T17:00:17.617Z,56.05
2023-02-08T17:02:46.139Z,56.08
2023-02-08T17:05:15.006Z,56.09
2023-02-08T17:07:43.089Z,56.11
2023-02-08T17:10:19.769Z,55.85
2023-02-08T17:12:48.074Z,55.88
2023-02-08T17:15:16.756Z,55.88
2023-02-08T17:17:44.924Z,56.14
2023-02-08T17:20:23.266Z,56.49
2023-02-08T17:22:52.665Z,56.49
2023-02-08T17:25:22.430Z,57.20
2023-02-08T17:27:53.973Z,57.43
2023-02-08T17:30:25.441Z,57.57
2023-02-08T17:32:53.913Z,57.61
2023-02-08T17:35:21.998Z,57.73
2023-02-08T17:37:53.068Z,57.32
2023-02-08T17:40:27.071Z,57.13
2023-02-08T17:42:55.429Z,56.69
2023-02-08T17:45:23.842Z,56.73
2023-02-08T17:47:51.926Z,56.50
2023-02-08T17:50:20.519Z,56.58
2023-02-08T17:52:49.219Z,56.73
2023-02-08T17:55:18.933Z,56.59
2023-02-08T17:57:48.740Z,56.68
2023-02-08T18:00:19.298Z,56.77
2023-02-08T18:02:49.494Z,56.73
2023-02-08T18:05:19.044Z,56.69
2023-02-08T18:07:47.538Z,56.50
2023-02-08T18:10:16.882Z,56.53
2023-02-08T18:12:44.966Z,56.79
2023-02-08T18:15:18.172Z,56.40
2023-02-08T18:17:47.752Z,56.21
2023-02-08T18:20:17.232Z,56.16
2023-02-08T18:22:45.884Z,56.04
2023-02-08T18:25:16.049Z,55.90
2023-02-08T18:27:44.889Z,56.10
2023-02-08T18:30:15.654Z,55.90
2023-02-08T18:32:43.836Z,55.95
2023-02-08T18:35:12.597Z,56.01
2023-02-08T18:37:40.908Z,56.16
2023-02-08T18:40:10.088Z,56.34
2023-02-08T18:42:38.697Z,56.11
2023-02-08T18:45:07.409Z,56.03
2023-02-08T18:47:38.068Z,56.00
2023-02-08T18:50:07.112Z,56.27
2023-02-08T18:52:35.267Z,56.28
2023-02-08T18:55:03.359Z,56.70
2023-02-08T18:57:31.733Z,56.58
2023-02-08T18:59:59.718Z,56.50
2023-02-08T19:02:27.890Z,56.24
2023-02-08T19:04:57.677Z,55.94
2023-02-08T19:07:25.798Z,55.95
2023-02-08T19:09:54.185Z,55.88
2023-02-08T19:12:22.469Z,55.95
2023-02-08T19:14:51.570Z,56.05
2023-02-08T19:17:19.756Z,56.12
2023-02-08T19:19:48.426Z,56.21
2023-02-08T19:22:17.815Z,56.28
2023-02-08T19:24:45.889Z,56.25
2023-02-08T19:27:14.080Z,56.39
2023-02-08T19:29:42.322Z,56.24
2023-02-08T19:32:10.400Z,56.31
2023-02-08T19:34:38.734Z,56.59
2023-02-08T19:37:07.234Z,56.79
2023-02-08T19:39:36.557Z,56.73
2023-02-08T19:42:05.728Z,56.75
2023-02-08T19:44:33.811Z,56.81
2023-02-08T19:47:01.902Z,56.86
2023-02-08T19:49:30.254Z,56.93
2023-02-08T19:51:58.286Z,57.33
2023-02-08T19:54:26.758Z,56.92
2023-02-08T19:56:56.686Z,56.94
2023-02-08T19:59:26.738Z,56.73
2023-02-08T20:01:56.256Z,56.65
2023-02-08T20:04:25.127Z,56.87
2023-02-08T20:06:54.265Z,57.05
2023-02-08T20:09:22.864Z,56.96
2023-02-08T20:12:00.127Z,56.85
2023-02-08T20:14:33.947Z,56.76
2023-02-08T20:17:03.150Z,56.86
2023-02-08T20:19:31.352Z,56.74
2023-02-08T20:21:59.728Z,56.63
2023-02-08T20:24:28.460Z,56.65
2023-02-08T20:26:56.831Z,56.43
2023-02-08T20:29:26.291Z,56.55
2023-02-08T20:31:57.828Z,56.25
2023-02-08T20:34:26.038Z,56.20
2023-02-08T20:37:06.874Z,56.38
2023-02-08T20:39:36.308Z,56.39
2023-02-08T20:42:05.351Z,56.37
2023-02-08T20:44:33.388Z,56.17
2023-02-08T20:47:02.917Z,56.22
2023-02-08T20:49:32.325Z,56.04
2023-02-08T20:52:00.634Z,56.04
2023-02-08T20:54:28.574Z,55.94
2023-02-08T20:56:57.063Z,55.74
2023-02-08T20:59:25.243Z,55.76
2023-02-08T21:01:53.339Z,55.66
2023-02-08T21:04:23.817Z,55.63
2023-02-08T21:06:52.838Z,55.57
2023-02-08T21:09:21.155Z,55.43
2023-02-08T21:11:52.465Z,55.38
2023-02-08T21:14:23.560Z,55.35
2023-02-08T21:16:55.815Z,55.30
2023-02-08T21:19:26.755Z,55.30
2023-02-08T21:21:59.602Z,55.27
2023-02-08T21:24:29.082Z,55.28
2023-02-08T21:26:58.035Z,55.32
2023-02-08T21:29:26.921Z,55.43
2023-02-08T21:31:56.999Z,55.57
2023-02-08T21:34:27.179Z,55.50
2023-02-08T21:36:55.563Z,55.46
2023-02-08T21:39:24.161Z,55.47
2023-02-08T21:41:55.317Z,55.53
2023-02-08T21:44:23.596Z,55.72
2023-02-08T21:46:51.809Z,55.84
2023-02-08T21:49:37.766Z,55.94
2023-02-08T21:52:25.239Z,55.97
2023-02-08T21:54:53.991Z,55.84
2023-02-08T21:57:23.893Z,55.82
2023-02-08T21:59:54.699Z,55.75
2023-02-08T22:02:25.631Z,55.69
2023-02-08T22:05:13.278Z,55.69
2023-02-08T22:07:45.343Z,55.67
2023-02-08T22:10:15.266Z,55.65
2023-02-08T22:12:43.843Z,55.62
2023-02-08T22:15:13.377Z,55.62
2023-02-08T22:17:42.101Z,55.59
2023-02-08T22:20:11.881Z,55.67
2023-02-08T22:22:40.592Z,55.61
2023-02-08T22:25:10.657Z,55.55
2023-02-08T22:27:39.860Z,55.50
2023-02-08T22:30:10.842Z,55.52
2023-02-08T22:32:40.964Z,55.68
2023-02-08T22:35:10.242Z,55.89
2023-02-08T22:37:38.524Z,56.02
2023-02-08T22:40:07.961Z,56.02
2023-02-08T22:42:39.453Z,55.94
2023-02-08T22:45:08.344Z,55.98
2023-02-08T22:47:37.084Z,55.91
2023-02-08T22:50:05.798Z,55.69
2023-02-08T22:52:34.621Z,55.53
2023-02-08T22:55:04.140Z,55.67
2023-02-08T22:57:33.171Z,55.62
2023-02-08T23:00:03.124Z,55.56
2023-02-08T23:02:32.407Z,55.58
2023-02-08T23:05:00.493Z,55.54
2023-02-08T23:07:28.951Z,55.38
2023-02-08T23:09:57.376Z,55.52
2023-02-08T23:12:25.923Z,55.46
2023-02-08T23:14:54.114Z,55.43
2023-02-08T23:17:24.028Z,55.49
2023-02-08T23:19:53.268Z,55.52
2023-02-08T23:22:21.355Z,55.41
2023-02-08T23:24:50.012Z,55.45
2023-02-08T23:27:18.211Z,55.40
2023-02-08T23:29:46.479Z,55.40
2023-02-08T23:32:14.969Z,55.27
2023-02-08T23:34:44.591Z,55.21
2023-02-08T23:37:12.777Z,55.26
2023-02-08T23:39:41.235Z,55.27
